createdAt,value
2022-10-19T00:01:02.991Z,10.97
2022-10-19T00:03:30.846Z,10.86
2022-10-19T00:05:58.751Z,10.76
2022-10-19T00:08:27.850Z,10.65
2022-10-19T00:10:55.542Z,10.54
2022-10-19T00:13:23.254Z,10.43
2022-10-19T00:15:50.951Z,10.39
2022-10-19T00:18:18.623Z,10.32
2022-10-19T00:20:46.397Z,10.28
2022-10-19T00:23:14.163Z,10.16
2022-10-19T00:25:43.241Z,10.06
2022-10-19T00:28:11.044Z,9.99
2022-10-19T00:30:38.870Z,9.89
2022-10-19T00:33:06.572Z,9.84
2022-10-19T00:35:34.271Z,9.78
2022-10-19T00:38:02.108Z,9.57
2022-10-19T00:40:29.784Z,9.67
2022-10-19T00:42:58.850Z,9.61
2022-10-19T00:45:26.666Z,9.58
2022-10-19T00:47:54.390Z,9.55
2022-10-19T00:50:22.570Z,9.50
2022-10-19T00:52:50.546Z,9.47
2022-10-19T00:55:18.316Z,9.44
2022-10-19T00:57:46.083Z,9.41
2022-10-19T01:00:15.600Z,9.40
2022-10-19T01:02:43.347Z,9.46
2022-10-19T01:05:12.374Z,9.40
2022-10-19T01:07:40.233Z,9.36
2022-10-19T01:10:09.673Z,9.32
2022-10-19T01:13:05.958Z,9.32
2022-10-19T01:15:42.860Z,9.31
2022-10-19T01:18:17.793Z,9.25
2022-10-19T01:21:20.761Z,9.23
2022-10-19T01:24:12.371Z,9.19
2022-10-19T01:27:00.285Z,9.16
2022-10-19T01:29:45.986Z,8.96
2022-10-19T01:32:23.488Z,9.18
2022-10-19T01:34:59.876Z,9.07
2022-10-19T01:37:37.057Z,9.22
2022-10-19T01:40:10.121Z,9.26
2022-10-19T01:42:46.239Z,9.27
2022-10-19T01:45:18.707Z,9.25
2022-10-19T01:47:54.431Z,9.26
2022-10-19T01:50:28.713Z,9.29
2022-10-19T01:52:57.988Z,9.34
2022-10-19T01:55:28.281Z,9.35
2022-10-19T01:58:00.362Z,9.28
2022-10-19T02:00:30.625Z,9.19
2022-10-19T02:03:01.603Z,9.28
2022-10-19T02:05:32.824Z,9.39
2022-10-19T02:08:05.039Z,9.30
2022-10-19T02:10:36.296Z,9.35
2022-10-19T02:13:04.597Z,9.36
2022-10-19T02:15:37.353Z,9.39
2022-10-19T02:18:08.133Z,9.34
2022-10-19T02:20:37.416Z,9.30
2022-10-19T02:23:05.917Z,9.29
2022-10-19T02:25:34.034Z,9.27
2022-10-19T02:28:03.651Z,9.25
2022-10-19T02:30:31.479Z,9.21
2022-10-19T02:32:59.174Z,9.18
2022-10-19T02:35:28.822Z,9.09
2022-10-19T02:38:00.553Z,9.04
2022-10-19T02:40:30.748Z,9.06
2022-10-19T02:43:05.117Z,8.92
2022-10-19T02:45:36.671Z,8.92
2022-10-19T02:48:07.255Z,9.14
2022-10-19T02:50:36.574Z,9.23
2022-10-19T02:53:04.755Z,9.29
2022-10-19T02:55:32.641Z,9.37
2022-10-19T02:58:00.370Z,9.42
2022-10-19T03:00:28.081Z,9.47
2022-10-19T03:02:55.766Z,9.56
2022-10-19T03:05:23.449Z,9.58
2022-10-19T03:07:52.473Z,9.70
2022-10-19T03:10:20.133Z,9.77
2022-10-19T03:12:47.821Z,9.73
2022-10-19T03:15:16.977Z,9.71
2022-10-19T03:17:44.654Z,9.76
2022-10-19T03:20:12.811Z,9.73
2022-10-19T03:22:40.525Z,9.79
2022-10-19T03:25:10.313Z,9.79
2022-10-19T03:27:37.990Z,10.02
2022-10-19T03:30:06.275Z,9.80
2022-10-19T03:32:33.960Z,9.87
2022-10-19T03:35:01.635Z,9.87
2022-10-19T03:37:29.267Z,9.89
2022-10-19T03:39:56.942Z,9.94
2022-10-19T03:42:25.986Z,9.94
2022-10-19T03:44:53.689Z,9.95
2022-10-19T03:47:21.390Z,9.95
2022-10-19T03:49:50.390Z,10.04
2022-10-19T03:52:18.926Z,10.07
2022-10-19T03:54:47.230Z,10.03
2022-10-19T03:57:14.901Z,9.92
2022-10-19T03:59:43.929Z,10.02
2022-10-19T04:02:11.592Z,10.00
2022-10-19T04:04:39.438Z,9.94
2022-10-19T04:07:07.188Z,9.83
2022-10-19T04:09:34.867Z,9.77
2022-10-19T04:12:02.578Z,9.67
2022-10-19T04:14:32.445Z,9.58
2022-10-19T04:17:02.807Z,9.49
2022-10-19T04:19:30.678Z,9.46
2022-10-19T04:21:58.893Z,9.19
2022-10-19T04:24:26.686Z,9.33
2022-10-19T04:26:56.086Z,9.35
2022-10-19T04:29:29.474Z,9.32
2022-10-19T04:31:57.917Z,9.30
2022-10-19T04:34:26.996Z,9.23
2022-10-19T04:36:54.918Z,9.05
2022-10-19T04:39:22.628Z,9.13
2022-10-19T04:41:50.347Z,9.12
2022-10-19T04:44:18.080Z,9.07
2022-10-19T04:46:45.771Z,9.03
2022-10-19T04:49:16.454Z,8.97
2022-10-19T04:51:48.478Z,8.92
2022-10-19T04:54:16.211Z,8.96
2022-10-19T04:56:43.879Z,8.84
2022-10-19T04:59:14.496Z,8.67
2022-10-19T05:01:46.328Z,8.66
2022-10-19T05:04:15.154Z,8.56
2022-10-19T05:06:45.837Z,8.49
2022-10-19T05:09:14.944Z,8.39
2022-10-19T05:11:42.650Z,8.34
2022-10-19T05:14:10.363Z,8.27
2022-10-19T05:16:41.025Z,8.16
2022-10-19T05:19:08.723Z,8.13
2022-10-19T05:21:36.442Z,8.14
2022-10-19T05:24:04.187Z,8.29
2022-10-19T05:26:33.229Z,8.30
2022-10-19T05:29:04.360Z,8.23
2022-10-19T05:31:33.908Z,8.28
2022-10-19T05:34:03.133Z,8.21
2022-10-19T05:36:34.796Z,8.20
2022-10-19T05:39:06.443Z,8.16
2022-10-19T05:41:36.088Z,8.10
2022-10-19T05:44:05.178Z,8.12
2022-10-19T05:46:34.313Z,8.10
2022-10-19T05:49:02.303Z,8.02
2022-10-19T05:51:30.078Z,7.99
2022-10-19T05:53:58.113Z,7.38
2022-10-19T05:56:27.314Z,8.06
2022-10-19T05:58:56.743Z,7.85
2022-10-19T06:01:24.508Z,7.98
2022-10-19T06:03:53.869Z,7.96
2022-10-19T06:06:22.259Z,7.98
2022-10-19T06:08:50.821Z,8.02
2022-10-19T06:11:20.584Z,8.05
2022-10-19T06:13:50.512Z,8.07
2022-10-19T06:16:20.574Z,8.11
2022-10-19T06:18:48.427Z,8.10
2022-10-19T06:21:18.602Z,8.06
2022-10-19T06:23:46.685Z,8.14
2022-10-19T06:26:15.565Z,8.22
2022-10-19T06:28:44.840Z,8.24
2022-10-19T06:31:13.416Z,8.32
2022-10-19T06:33:48.656Z,8.40
2022-10-19T06:36:19.603Z,8.36
2022-10-19T06:38:47.815Z,8.19
2022-10-19T06:41:15.847Z,8.42
2022-10-19T06:43:44.379Z,8.43
2022-10-19T06:46:14.866Z,8.54
2022-10-19T06:48:44.032Z,8.66
2022-10-19T06:51:13.568Z,8.59
2022-10-19T06:53:41.285Z,8.89
2022-10-19T06:56:09.530Z,9.15
2022-10-19T06:58:37.700Z,9.08
2022-10-19T07:01:08.016Z,9.20
2022-10-19T07:03:37.438Z,9.30
2022-10-19T07:06:08.375Z,9.33
2022-10-19T07:08:37.666Z,9.29
2022-10-19T07:11:07.633Z,9.26
2022-10-19T07:13:35.864Z,9.37
2022-10-19T07:16:06.825Z,9.42
2022-10-19T07:18:34.810Z,9.69
2022-10-19T07:21:03.825Z,9.53
2022-10-19T07:23:34.622Z,9.52
2022-10-19T07:26:06.190Z,9.50
2022-10-19T07:28:34.307Z,9.47
2022-10-19T07:31:06.767Z,9.70
2022-10-19T07:33:34.675Z,9.77
2022-10-19T07:36:03.375Z,9.79
2022-10-19T07:38:33.883Z,10.06
2022-10-19T07:41:03.229Z,10.18
2022-10-19T07:43:31.091Z,10.29
2022-10-19T07:46:00.177Z,10.27
2022-10-19T07:48:27.832Z,10.48
2022-10-19T07:50:55.741Z,10.41
2022-10-19T07:53:24.065Z,10.53
2022-10-19T07:55:53.093Z,10.56
2022-10-19T07:58:20.821Z,10.28
2022-10-19T08:00:48.654Z,10.46
2022-10-19T08:04:13.649Z,10.78
2022-10-19T08:06:06.589Z,10.91
2022-10-19T08:08:34.561Z,10.87
2022-10-19T08:11:09.408Z,10.73
2022-10-19T08:13:37.374Z,10.65
2022-10-19T08:16:05.405Z,10.77
2022-10-19T08:18:33.800Z,11.02
2022-10-19T08:21:03.329Z,10.96
2022-10-19T08:23:31.019Z,11.42
2022-10-19T08:25:59.368Z,12.06
2022-10-19T08:28:28.497Z,12.79
2022-10-19T08:30:58.949Z,13.37
2022-10-19T08:33:27.547Z,14.13
2022-10-19T08:35:55.240Z,14.78
2022-10-19T08:38:22.963Z,14.12
2022-10-19T08:40:50.687Z,14.08
2022-10-19T08:43:28.628Z,14.78
2022-10-19T08:46:07.993Z,16.97
2022-10-19T08:48:39.274Z,17.96
2022-10-19T08:51:09.373Z,19.18
2022-10-19T08:53:44.880Z,17.92
2022-10-19T08:56:45.783Z,17.83
2022-10-19T08:59:17.543Z,17.34
2022-10-19T09:01:53.132Z,18.37
2022-10-19T09:04:24.837Z,18.41
2022-10-19T09:07:17.652Z,18.42
2022-10-19T09:09:51.354Z,17.94
2022-10-19T09:12:25.834Z,20.62
2022-10-19T09:14:58.907Z,22.05
2022-10-19T09:17:29.068Z,23.21
2022-10-19T09:19:57.728Z,24.52
2022-10-19T09:22:30.588Z,27.30
2022-10-19T09:25:02.211Z,25.63
2022-10-19T09:27:36.574Z,29.50
2022-10-19T09:30:07.069Z,27.66
2022-10-19T09:32:38.591Z,24.07
2022-10-19T09:35:18.839Z,23.22
2022-10-19T09:37:49.492Z,21.64
2022-10-19T09:40:20.584Z,22.02
2022-10-19T09:42:52.917Z,27.21
2022-10-19T09:45:32.934Z,25.29
2022-10-19T09:48:07.095Z,26.73
2022-10-19T09:50:44.549Z,28.27
2022-10-19T09:53:20.093Z,23.95
2022-10-19T09:55:52.502Z,25.94
2022-10-19T09:58:21.888Z,27.58
2022-10-19T10:00:51.662Z,25.68
2022-10-19T10:03:27.403Z,20.60
2022-10-19T10:05:57.767Z,21.27
2022-10-19T10:08:28.604Z,19.48
2022-10-19T10:11:03.616Z,23.81
2022-10-19T10:13:31.380Z,21.07
2022-10-19T10:16:02.415Z,24.75
2022-10-19T10:18:31.545Z,23.10
2022-10-19T10:21:06.069Z,26.11
2022-10-19T10:23:36.519Z,24.39
2022-10-19T10:26:07.103Z,22.53
2022-10-19T10:28:34.787Z,22.38
2022-10-19T10:31:05.828Z,20.44
2022-10-19T10:33:45.050Z,17.41
2022-10-19T10:36:13.513Z,17.98
2022-10-19T10:38:45.788Z,15.16
2022-10-19T10:41:17.675Z,15.86
2022-10-19T10:43:53.706Z,14.99
2022-10-19T10:46:25.555Z,13.87
2022-10-19T10:48:58.351Z,14.90
2022-10-19T10:51:34.014Z,15.47
2022-10-19T10:54:16.582Z,15.13
2022-10-19T10:56:45.478Z,14.97
2022-10-19T10:59:19.553Z,13.80
2022-10-19T11:02:03.073Z,14.11
2022-10-19T11:04:38.328Z,13.79
2022-10-19T11:07:17.140Z,14.60
2022-10-19T11:09:50.510Z,14.34
2022-10-19T11:12:25.072Z,14.07
2022-10-19T11:14:57.952Z,14.52
2022-10-19T11:17:29.271Z,13.52
2022-10-19T11:19:58.381Z,13.98
2022-10-19T11:22:30.994Z,14.71
2022-10-19T11:25:10.054Z,16.95
2022-10-19T11:27:46.099Z,17.29
2022-10-19T11:30:16.274Z,18.22
2022-10-19T11:32:56.509Z,18.87
2022-10-19T11:35:39.455Z,19.05
2022-10-19T11:38:21.826Z,18.61
2022-10-19T11:41:18.582Z,20.41
2022-10-19T11:44:05.156Z,21.34
2022-10-19T11:46:39.863Z,19.01
2022-10-19T11:49:22.300Z,23.81
2022-10-19T11:51:57.924Z,19.33
2022-10-19T11:54:45.556Z,18.75
2022-10-19T11:57:16.657Z,16.71
2022-10-19T12:00:03.650Z,17.69
2022-10-19T12:03:03.987Z,19.08
2022-10-19T12:05:36.469Z,17.32
2022-10-19T12:08:22.455Z,18.57
2022-10-19T12:10:58.423Z,17.09
2022-10-19T12:13:30.797Z,16.76
2022-10-19T12:16:01.458Z,18.12
2022-10-19T12:18:35.111Z,18.58
2022-10-19T12:21:05.797Z,22.77
2022-10-19T12:23:38.524Z,18.31
2022-10-19T12:26:09.773Z,22.38
2022-10-19T12:28:41.682Z,22.59
2022-10-19T12:31:11.798Z,21.77
2022-10-19T12:33:47.347Z,20.90
2022-10-19T12:36:28.017Z,22.55
2022-10-19T12:39:03.480Z,24.32
2022-10-19T12:41:37.623Z,23.62
2022-10-19T12:47:01.553Z,20.89
2022-10-19T12:49:38.481Z,21.81
2022-10-19T12:52:08.255Z,21.69
2022-10-19T12:54:40.693Z,22.40
2022-10-19T12:57:24.518Z,23.52
2022-10-19T13:00:02.498Z,20.51
2022-10-19T13:05:07.259Z,19.29
2022-10-19T13:07:37.106Z,19.55
2022-10-19T13:10:09.654Z,19.89
2022-10-19T13:12:46.766Z,19.07
2022-10-19T13:15:57.480Z,17.63
2022-10-19T13:19:08.320Z,18.78
2022-10-19T13:22:07.160Z,15.83
2022-10-19T13:24:37.529Z,17.01
2022-10-19T13:27:40.225Z,14.82
2022-10-19T13:30:48.210Z,15.17
2022-10-19T13:33:48.135Z,15.69
2022-10-19T13:36:16.304Z,15.32
2022-10-19T13:38:45.594Z,15.40
2022-10-19T13:41:16.947Z,15.41
2022-10-19T13:43:56.307Z,15.06
2022-10-19T13:46:41.053Z,15.16
2022-10-19T13:49:32.609Z,13.78
2022-10-19T13:52:16.411Z,13.44
2022-10-19T13:55:05.613Z,14.03
2022-10-19T13:57:53.144Z,13.44
2022-10-19T14:00:24.712Z,13.61
2022-10-19T14:03:01.751Z,13.07
2022-10-19T14:05:55.574Z,13.53
2022-10-19T14:09:01.047Z,13.18
2022-10-19T14:11:33.478Z,12.96
2022-10-19T14:14:20.397Z,13.26
2022-10-19T14:16:58.293Z,13.35
2022-10-19T14:19:31.392Z,13.04
2022-10-19T14:22:01.644Z,12.94
2022-10-19T14:24:32.492Z,12.97
2022-10-19T14:27:03.013Z,12.18
2022-10-19T14:29:32.244Z,12.09
2022-10-19T14:32:01.492Z,12.02
2022-10-19T14:34:29.229Z,11.80
2022-10-19T14:36:57.206Z,12.10
2022-10-19T14:39:30.659Z,12.41
2022-10-19T14:42:04.121Z,12.23
2022-10-19T14:44:38.670Z,12.25
2022-10-19T14:47:22.309Z,12.38
2022-10-19T14:49:50.729Z,12.11
2022-10-19T14:52:24.140Z,11.80
2022-10-19T14:54:54.808Z,11.95
2022-10-19T14:57:28.216Z,12.62
2022-10-19T14:59:59.238Z,12.72
2022-10-19T15:02:32.680Z,12.64
2022-10-19T15:05:02.794Z,12.44
2022-10-19T15:07:36.583Z,12.37
2022-10-19T15:10:09.427Z,12.12
2022-10-19T15:12:40.205Z,12.06
2022-10-19T15:15:10.958Z,11.92
2022-10-19T15:17:51.393Z,11.70
2022-10-19T15:20:26.670Z,11.84
2022-10-19T15:22:54.777Z,11.92
2022-10-19T15:25:33.976Z,12.92
2022-10-19T15:28:19.943Z,13.47
2022-10-19T15:30:59.345Z,12.47
2022-10-19T15:33:29.545Z,11.88
2022-10-19T15:36:17.519Z,11.77
2022-10-19T15:38:47.275Z,11.01
2022-10-19T15:41:20.594Z,11.22
2022-10-19T15:43:52.529Z,10.92
2022-10-19T15:46:26.486Z,10.92
2022-10-19T15:48:56.481Z,10.63
2022-10-19T15:51:49.431Z,10.43
2022-10-19T15:54:19.454Z,10.33
2022-10-19T15:56:48.766Z,10.23
2022-10-19T15:59:18.622Z,10.01
2022-10-19T16:01:52.563Z,9.88
2022-10-19T16:04:25.045Z,9.69
2022-10-19T16:06:52.741Z,9.47
2022-10-19T16:09:22.410Z,9.28
2022-10-19T16:11:56.353Z,9.10
2022-10-19T16:14:24.304Z,8.69
2022-10-19T16:16:52.074Z,8.71
2022-10-19T16:19:19.995Z,8.68
2022-10-19T16:21:50.399Z,8.51
2022-10-19T16:24:18.364Z,8.36
2022-10-19T16:26:46.285Z,8.11
2022-10-19T16:29:13.977Z,8.14
2022-10-19T16:31:41.698Z,8.06
2022-10-19T16:34:09.382Z,8.01
2022-10-19T16:36:37.307Z,7.90
2022-10-19T16:39:06.389Z,7.77
2022-10-19T16:41:34.107Z,7.75
2022-10-19T16:44:01.879Z,7.64
2022-10-19T16:46:29.741Z,7.29
2022-10-19T16:48:57.648Z,7.45
2022-10-19T16:51:35.983Z,7.37
2022-10-19T16:54:05.427Z,7.31
2022-10-19T16:56:34.894Z,7.39
2022-10-19T16:59:04.436Z,7.40
2022-10-19T17:01:33.334Z,7.39
2022-10-19T17:04:01.710Z,6.92
2022-10-19T17:06:29.917Z,7.54
2022-10-19T17:09:37.035Z,7.33
2022-10-19T17:11:49.122Z,7.67
2022-10-19T17:14:20.104Z,7.51
2022-10-19T17:16:50.290Z,7.76
2022-10-19T17:19:21.984Z,7.67
2022-10-19T17:21:51.804Z,7.64
2022-10-19T17:24:22.706Z,7.40
2022-10-19T17:26:54.715Z,7.65
2022-10-19T17:29:24.613Z,7.56
2022-10-19T17:31:53.570Z,7.34
2022-10-19T17:34:23.157Z,7.54
2022-10-19T17:36:52.068Z,7.46
2022-10-19T17:39:27.473Z,7.47
2022-10-19T17:42:03.743Z,7.49
2022-10-19T17:44:33.377Z,7.52
2022-10-19T17:47:02.915Z,7.36
2022-10-19T17:49:32.030Z,7.41
2022-10-19T17:52:01.731Z,7.34
2022-10-19T17:54:36.256Z,7.42
2022-10-19T17:57:14.394Z,7.40
2022-10-19T17:59:52.679Z,7.40
2022-10-19T18:02:22.672Z,7.38
2022-10-19T18:04:50.480Z,7.05
2022-10-19T18:07:18.651Z,7.19
2022-10-19T18:09:46.337Z,7.28
2022-10-19T18:12:15.433Z,7.23
2022-10-19T18:14:43.250Z,7.22
2022-10-19T18:17:11.176Z,7.11
2022-10-19T18:19:38.921Z,7.17
2022-10-19T18:22:06.641Z,6.99
2022-10-19T18:24:34.793Z,7.07
2022-10-19T18:27:02.655Z,7.02
2022-10-19T18:29:31.784Z,7.01
2022-10-19T18:31:59.551Z,6.98
2022-10-19T18:34:27.925Z,6.89
2022-10-19T18:36:55.936Z,6.93
2022-10-19T18:39:24.068Z,6.88
2022-10-19T18:41:54.314Z,6.88
2022-10-19T18:44:26.344Z,6.94
2022-10-19T18:46:57.259Z,6.88
2022-10-19T18:49:26.577Z,6.72
2022-10-19T18:51:56.291Z,6.62
2022-10-19T18:54:24.594Z,6.82
2022-10-19T18:56:52.302Z,6.76
2022-10-19T18:59:20.074Z,6.62
2022-10-19T19:01:47.840Z,6.81
2022-10-19T19:04:16.994Z,6.57
2022-10-19T19:06:44.765Z,6.69
2022-10-19T19:09:13.201Z,6.50
2022-10-19T19:11:41.718Z,6.54
2022-10-19T19:14:13.244Z,6.42
2022-10-19T19:16:42.623Z,6.37
2022-10-19T19:19:12.403Z,6.29
2022-10-19T19:21:44.155Z,6.21
2022-10-19T19:24:14.167Z,6.20
2022-10-19T19:26:44.618Z,6.21
2022-10-19T19:29:12.339Z,6.14
2022-10-19T19:31:40.433Z,6.13
2022-10-19T19:34:09.386Z,6.01
2022-10-19T19:36:38.275Z,5.94
2022-10-19T19:39:07.374Z,5.86
2022-10-19T19:41:35.032Z,5.78
2022-10-19T19:44:02.765Z,5.06
2022-10-19T19:46:31.137Z,5.72
2022-10-19T19:49:01.071Z,5.69
2022-10-19T19:51:30.027Z,5.76
2022-10-19T19:53:58.305Z,5.82
2022-10-19T19:56:28.877Z,5.91
2022-10-19T19:58:58.084Z,6.07
2022-10-19T20:01:26.869Z,6.13
2022-10-19T20:03:54.814Z,6.20
2022-10-19T20:06:25.782Z,6.35
2022-10-19T20:08:54.370Z,6.36
2022-10-19T20:11:22.248Z,6.58
2022-10-19T20:13:51.752Z,5.98
2022-10-19T20:16:25.135Z,6.51
2022-10-19T20:19:00.136Z,6.51
2022-10-19T20:21:28.286Z,6.50
2022-10-19T20:23:56.007Z,6.47
2022-10-19T20:26:26.042Z,6.46
2022-10-19T20:28:55.169Z,6.50
2022-10-19T20:31:23.635Z,6.45
2022-10-19T20:33:51.439Z,6.49
2022-10-19T20:36:21.469Z,6.36
2022-10-19T20:38:50.892Z,6.43
2022-10-19T20:41:20.229Z,6.42
2022-10-19T20:43:48.007Z,6.16
2022-10-19T20:46:19.178Z,6.40
2022-10-19T20:48:47.074Z,6.32
2022-10-19T20:51:16.865Z,6.29
2022-10-19T20:53:46.345Z,6.37
2022-10-19T20:56:15.735Z,6.42
2022-10-19T20:58:44.982Z,6.42
2022-10-19T21:01:15.143Z,6.37
2022-10-19T21:03:49.108Z,6.00
2022-10-19T21:06:17.331Z,6.31
2022-10-19T21:08:45.177Z,6.29
2022-10-19T21:11:14.787Z,6.06
2022-10-19T21:13:42.750Z,5.79
2022-10-19T21:16:11.647Z,6.09
2022-10-19T21:18:39.793Z,6.08
2022-10-19T21:21:17.790Z,6.11
2022-10-19T21:23:46.767Z,6.05
2022-10-19T21:26:15.037Z,6.03
2022-10-19T21:28:48.179Z,6.13
2022-10-19T21:31:17.305Z,5.93
2022-10-19T21:33:45.699Z,6.04
2022-10-19T21:36:15.707Z,5.97
2022-10-19T21:38:43.757Z,5.80
2022-10-19T21:41:14.741Z,5.78
2022-10-19T21:43:43.240Z,5.77
2022-10-19T21:46:14.871Z,5.72
2022-10-19T21:48:43.166Z,5.60
2022-10-19T21:51:24.866Z,5.64
2022-10-19T21:53:52.587Z,5.92
2022-10-19T21:56:20.278Z,5.82
2022-10-19T21:58:48.396Z,5.81
2022-10-19T22:01:16.347Z,5.90
2022-10-19T22:03:44.211Z,5.81
2022-10-19T22:06:12.322Z,5.55
2022-10-19T22:08:45.042Z,5.79
2022-10-19T22:11:14.518Z,5.94
2022-10-19T22:13:42.598Z,5.76
2022-10-19T22:16:12.763Z,5.88
2022-10-19T22:18:40.478Z,5.80
2022-10-19T22:21:10.290Z,5.83
2022-10-19T22:23:38.311Z,5.83
2022-10-19T22:26:14.939Z,5.91
2022-10-19T22:28:43.077Z,5.91
2022-10-19T22:31:11.302Z,5.94
2022-10-19T22:33:39.672Z,6.04
2022-10-19T22:36:10.025Z,6.00
2022-10-19T22:38:38.265Z,6.06
2022-10-19T22:41:06.010Z,5.96
2022-10-19T22:43:35.158Z,6.02
2022-10-19T22:46:02.958Z,6.02
2022-10-19T22:48:30.750Z,6.01
2022-10-19T22:50:58.466Z,5.92
2022-10-19T22:53:26.326Z,5.90
2022-10-19T22:55:54.124Z,5.90
2022-10-19T22:58:21.825Z,5.88
2022-10-19T23:01:01.607Z,5.87
2022-10-19T23:03:29.302Z,5.85
2022-10-19T23:05:57.040Z,5.81
2022-10-19T23:08:24.962Z,5.79
2022-10-19T23:10:52.827Z,5.74
2022-10-19T23:13:20.570Z,5.76
2022-10-19T23:15:48.473Z,5.51
2022-10-19T23:18:17.695Z,5.78
2022-10-19T23:20:53.888Z,5.45
2022-10-19T23:23:21.736Z,5.87
2022-10-19T23:25:58.844Z,5.91
2022-10-19T23:28:26.616Z,5.89
2022-10-19T23:30:56.125Z,5.91
2022-10-19T23:33:25.795Z,5.89
2022-10-19T23:35:53.602Z,5.74
2022-10-19T23:38:21.290Z,5.92
2022-10-19T23:40:49.011Z,5.86
2022-10-19T23:43:16.702Z,6.00
2022-10-19T23:45:46.485Z,5.96
2022-10-19T23:48:14.163Z,5.96
2022-10-19T23:50:43.277Z,5.98
2022-10-19T23:53:10.961Z,5.91
2022-10-19T23:55:38.684Z,6.18
2022-10-19T23:58:06.409Z,6.20
